createdAt,value
2023-03-26T00:00:32.587Z,50.16
2023-03-26T00:01:32.620Z,50.36
2023-03-26T00:02:32.677Z,50.26
2023-03-26T00:03:32.647Z,50.26
2023-03-26T00:04:32.664Z,50.26
2023-03-26T00:05:32.679Z,50.26
2023-03-26T00:06:32.668Z,50.26
2023-03-26T00:07:32.694Z,50.26
2023-03-26T00:08:32.704Z,50.26
2023-03-26T00:09:32.732Z,50.26
2023-03-26T00:10:32.751Z,50.26
2023-03-26T00:11:32.774Z,50.36
2023-03-26T00:12:32.815Z,50.16
2023-03-26T00:13:32.799Z,50.26
2023-03-26T00:14:32.817Z,50.26
2023-03-26T00:15:32.855Z,50.26
2023-03-26T00:16:32.894Z,50.26
2023-03-26T00:17:32.910Z,50.26
2023-03-26T00:18:32.857Z,50.16
2023-03-26T00:19:32.910Z,50.16
2023-03-26T00:20:32.874Z,50.16
2023-03-26T00:21:32.905Z,50.26
2023-03-26T00:22:32.928Z,50.26
2023-03-26T00:23:32.947Z,50.26
2023-03-26T00:24:32.946Z,50.16
2023-03-26T00:25:32.978Z,50.16
2023-03-26T00:26:32.968Z,50.16
2023-03-26T00:27:33.007Z,50.16
2023-03-26T00:28:33.023Z,50.16
2023-03-26T00:29:33.045Z,50.26
2023-03-26T00:30:33.083Z,50.26
2023-03-26T00:31:33.063Z,50.26
2023-03-26T00:32:33.092Z,50.26
2023-03-26T00:33:33.079Z,50.16
2023-03-26T00:34:33.100Z,50.16
2023-03-26T00:35:33.184Z,50.16
2023-03-26T00:36:33.113Z,50.16
2023-03-26T00:37:33.136Z,50.16
2023-03-26T00:38:33.120Z,50.16
2023-03-26T00:39:33.135Z,50.26
2023-03-26T00:40:33.151Z,50.26
2023-03-26T00:41:33.164Z,50.16
2023-03-26T00:42:33.194Z,50.16
2023-03-26T00:43:33.173Z,50.26
2023-03-26T00:44:33.423Z,50.16
2023-03-26T00:45:33.208Z,50.16
2023-03-26T00:46:33.277Z,50.16
2023-03-26T00:47:33.301Z,50.16
2023-03-26T00:48:44.458Z,50.26
2023-03-26T00:49:33.260Z,50.26
2023-03-26T00:50:33.274Z,50.16
2023-03-26T00:51:33.339Z,50.16
2023-03-26T00:52:33.307Z,50.16
2023-03-26T00:53:33.334Z,50.26
2023-03-26T00:54:33.327Z,50.16
2023-03-26T00:55:33.345Z,50.16
2023-03-26T00:56:33.395Z,50.16
2023-03-26T00:57:35.858Z,50.16
2023-03-26T00:58:33.397Z,50.26
2023-03-26T00:59:33.407Z,50.26
2023-03-26T01:00:33.436Z,50.16
2023-03-26T01:01:33.483Z,50.26
2023-03-26T01:02:33.531Z,50.16
2023-03-26T01:03:33.562Z,50.06
2023-03-26T01:04:33.599Z,50.16
2023-03-26T01:05:33.491Z,50.06
2023-03-26T01:06:33.508Z,50.16
2023-03-26T01:07:33.551Z,50.06
2023-03-26T01:08:33.513Z,50.06
2023-03-26T01:09:33.558Z,50.06
2023-03-26T01:10:33.528Z,50.06
2023-03-26T01:11:33.554Z,50.16
2023-03-26T01:12:33.585Z,50.16
2023-03-26T01:13:33.604Z,50.16
2023-03-26T01:14:33.627Z,50.16
2023-03-26T01:15:33.681Z,50.16
2023-03-26T01:16:33.887Z,50.16
2023-03-26T01:17:33.694Z,50.16
2023-03-26T01:18:33.954Z,50.16
2023-03-26T01:19:33.746Z,50.16
2023-03-26T01:20:33.727Z,50.16
2023-03-26T01:21:33.756Z,50.16
2023-03-26T01:22:33.785Z,50.16
2023-03-26T01:23:33.827Z,50.16
2023-03-26T01:24:33.797Z,50.16
2023-03-26T01:25:33.826Z,50.06
2023-03-26T01:26:33.843Z,50.16
2023-03-26T01:27:33.874Z,50.16
2023-03-26T01:28:33.888Z,50.16
2023-03-26T01:29:33.903Z,50.06
2023-03-26T01:30:33.925Z,50.06
2023-03-26T01:31:33.948Z,50.06
2023-03-26T01:32:34.074Z,50.16
2023-03-26T01:33:34.220Z,50.06
2023-03-26T01:34:33.976Z,50.16
2023-03-26T01:35:34.044Z,50.06
2023-03-26T01:36:33.965Z,50.16
2023-03-26T01:37:33.991Z,50.16
2023-03-26T01:38:33.989Z,50.16
2023-03-26T01:39:34.025Z,50.16
2023-03-26T01:40:34.002Z,50.16
2023-03-26T01:41:34.027Z,50.16
2023-03-26T01:42:34.054Z,50.16
2023-03-26T01:43:34.102Z,50.26
2023-03-26T01:44:34.083Z,50.16
2023-03-26T01:45:34.095Z,50.26
2023-03-26T01:46:34.165Z,50.16
2023-03-26T01:47:34.219Z,50.26
2023-03-26T01:48:34.160Z,50.16
2023-03-26T01:49:34.180Z,50.16
2023-03-26T01:50:34.201Z,50.26
2023-03-26T01:51:34.218Z,50.26
2023-03-26T01:52:34.260Z,50.16
2023-03-26T01:53:34.292Z,50.16
2023-03-26T01:54:34.262Z,50.16
2023-03-26T01:55:34.306Z,50.16
2023-03-26T01:56:34.325Z,50.26
2023-03-26T01:57:34.320Z,50.26
2023-03-26T01:58:34.288Z,50.16
2023-03-26T01:59:34.299Z,50.16
2023-03-26T02:00:34.313Z,50.26
2023-03-26T02:01:34.457Z,50.26
2023-03-26T02:02:34.490Z,50.26
2023-03-26T02:03:34.360Z,50.26
2023-03-26T02:04:34.337Z,50.16
2023-03-26T02:05:34.354Z,50.26
2023-03-26T02:06:34.395Z,50.26
2023-03-26T02:07:34.415Z,50.16
2023-03-26T02:08:34.392Z,50.36
2023-03-26T02:09:34.414Z,50.26
2023-03-26T02:10:34.441Z,50.26
2023-03-26T02:11:35.922Z,50.29
2023-03-26T02:12:34.418Z,50.38
2023-03-26T02:13:34.435Z,50.38
2023-03-26T02:14:34.450Z,50.38
2023-03-26T02:15:34.476Z,50.29
2023-03-26T02:16:34.572Z,50.38
2023-03-26T02:17:34.512Z,50.48
2023-03-26T02:18:34.491Z,50.38
2023-03-26T02:19:34.519Z,50.38
2023-03-26T02:20:34.595Z,50.38
2023-03-26T02:21:34.562Z,50.38
2023-03-26T02:22:34.600Z,50.38
2023-03-26T02:23:34.598Z,50.38
2023-03-26T02:24:34.610Z,50.38
2023-03-26T02:25:34.631Z,50.29
2023-03-26T02:26:34.653Z,50.36
2023-03-26T02:27:34.696Z,50.26
2023-03-26T02:28:34.667Z,50.38
2023-03-26T02:29:34.673Z,50.38
2023-03-26T02:30:34.694Z,50.38
2023-03-26T02:31:34.732Z,50.38
2023-03-26T02:32:34.731Z,50.48
2023-03-26T02:33:34.717Z,50.48
2023-03-26T02:34:34.748Z,50.48
2023-03-26T02:35:34.881Z,50.38
2023-03-26T02:36:34.845Z,50.38
2023-03-26T02:37:34.766Z,50.38
2023-03-26T02:38:34.791Z,50.38
2023-03-26T02:39:34.804Z,50.48
2023-03-26T02:40:34.837Z,50.48
2023-03-26T02:41:34.848Z,50.48
2023-03-26T02:42:34.879Z,50.38
2023-03-26T02:43:34.886Z,50.38
2023-03-26T02:44:34.858Z,50.38
2023-03-26T02:45:34.914Z,50.48
2023-03-26T02:46:34.877Z,50.38
2023-03-26T02:47:34.971Z,50.48
2023-03-26T02:48:34.885Z,50.48
2023-03-26T02:49:34.909Z,50.38
2023-03-26T02:50:34.942Z,50.48
2023-03-26T02:51:35.002Z,50.48
2023-03-26T02:52:34.970Z,50.38
2023-03-26T02:53:34.982Z,50.59
2023-03-26T02:54:35.019Z,50.59
2023-03-26T02:55:35.024Z,50.48
2023-03-26T02:56:35.047Z,50.59
2023-03-26T02:57:35.031Z,50.59
2023-03-26T02:58:35.058Z,50.48
2023-03-26T02:59:35.098Z,50.59
2023-03-26T03:00:35.077Z,50.48
2023-03-26T03:01:35.415Z,50.38
2023-03-26T03:02:35.186Z,50.38
2023-03-26T03:03:35.237Z,50.48
2023-03-26T03:04:35.135Z,50.59
2023-03-26T03:05:35.164Z,50.48
2023-03-26T03:06:35.174Z,50.48
2023-03-26T03:07:35.201Z,50.48
2023-03-26T03:08:35.260Z,50.59
2023-03-26T03:09:35.238Z,50.59
2023-03-26T03:10:35.262Z,50.59
2023-03-26T03:11:35.270Z,50.48
2023-03-26T03:12:35.305Z,50.59
2023-03-26T03:13:35.320Z,50.59
2023-03-26T03:14:35.354Z,50.59
2023-03-26T03:15:35.369Z,50.48
2023-03-26T03:16:35.357Z,50.48
2023-03-26T03:17:35.353Z,50.59
2023-03-26T03:18:35.364Z,50.59
2023-03-26T03:19:35.376Z,50.48
2023-03-26T03:20:35.484Z,50.59
2023-03-26T03:21:35.420Z,50.48
2023-03-26T03:22:35.439Z,50.48
2023-03-26T03:23:35.473Z,50.59
2023-03-26T03:24:35.483Z,50.48
2023-03-26T03:25:35.503Z,50.59
2023-03-26T03:26:35.519Z,50.59
2023-03-26T03:27:35.533Z,50.48
2023-03-26T03:28:35.566Z,50.59
2023-03-26T03:29:35.591Z,50.59
2023-03-26T03:30:35.685Z,50.59
2023-03-26T03:31:35.638Z,50.59
2023-03-26T03:32:35.638Z,50.48
2023-03-26T03:33:35.637Z,50.59
2023-03-26T03:34:35.651Z,50.59
2023-03-26T03:35:35.676Z,50.59
2023-03-26T03:36:35.675Z,50.59
2023-03-26T03:37:35.686Z,50.59
2023-03-26T03:38:35.707Z,50.59
2023-03-26T03:39:35.718Z,50.59
2023-03-26T03:40:35.764Z,50.48
2023-03-26T03:41:35.738Z,50.59
2023-03-26T03:42:35.762Z,50.59
2023-03-26T03:43:35.787Z,50.59
2023-03-26T03:44:35.778Z,50.59
2023-03-26T03:45:35.824Z,50.59
2023-03-26T03:46:35.839Z,50.59
2023-03-26T03:47:35.868Z,50.59
2023-03-26T03:48:35.812Z,50.48
2023-03-26T03:49:35.829Z,50.59
2023-03-26T03:50:36.081Z,50.59
2023-03-26T03:51:35.892Z,50.48
2023-03-26T03:52:35.904Z,50.59
2023-03-26T03:53:35.937Z,50.59
2023-03-26T03:54:35.945Z,50.59
2023-03-26T03:55:35.965Z,50.48
2023-03-26T03:56:36.070Z,50.48
2023-03-26T03:57:35.987Z,50.48
2023-03-26T03:58:36.001Z,50.48
2023-03-26T03:59:36.018Z,50.59
2023-03-26T04:00:36.041Z,50.48
2023-03-26T04:01:36.076Z,50.48
2023-03-26T04:02:36.120Z,50.59
2023-03-26T04:03:36.173Z,50.48
2023-03-26T04:04:36.120Z,50.48
2023-03-26T04:05:36.077Z,50.59
2023-03-26T04:06:36.104Z,50.59
2023-03-26T04:07:36.125Z,50.48
2023-03-26T04:08:36.147Z,50.59
2023-03-26T04:09:36.173Z,50.59
2023-03-26T04:10:36.204Z,50.59
2023-03-26T04:11:36.215Z,50.59
2023-03-26T04:12:36.252Z,50.59
2023-03-26T04:13:36.269Z,50.59
2023-03-26T04:14:36.301Z,50.48
2023-03-26T04:15:36.396Z,50.48
2023-03-26T04:16:36.436Z,50.59
2023-03-26T04:17:36.353Z,50.59
2023-03-26T04:18:36.366Z,50.59
2023-03-26T04:19:36.414Z,50.59
2023-03-26T04:20:36.612Z,50.59
2023-03-26T04:21:36.400Z,50.59
2023-03-26T04:22:36.440Z,50.59
2023-03-26T04:23:36.448Z,50.59
2023-03-26T04:24:36.448Z,50.59
2023-03-26T04:25:36.477Z,50.48
2023-03-26T04:26:36.492Z,50.59
2023-03-26T04:27:36.522Z,50.59
2023-03-26T04:28:36.568Z,50.59
2023-03-26T04:29:36.536Z,50.48
2023-03-26T04:30:36.551Z,50.48
2023-03-26T04:31:36.626Z,50.48
2023-03-26T04:32:36.621Z,50.48
2023-03-26T04:33:36.612Z,50.59
2023-03-26T04:34:36.696Z,50.48
2023-03-26T04:35:36.666Z,50.48
2023-03-26T04:36:36.638Z,50.59
2023-03-26T04:37:36.665Z,50.59
2023-03-26T04:38:36.684Z,50.48
2023-03-26T04:39:36.709Z,50.48
2023-03-26T04:40:36.744Z,50.48
2023-03-26T04:41:36.761Z,50.48
2023-03-26T04:42:36.783Z,50.48
2023-03-26T04:43:36.824Z,50.48
2023-03-26T04:44:37.034Z,50.48
2023-03-26T04:45:36.818Z,50.48
2023-03-26T04:46:36.871Z,50.48
2023-03-26T04:47:37.097Z,50.38
2023-03-26T04:48:36.839Z,50.38
2023-03-26T04:49:36.861Z,50.48
2023-03-26T04:50:36.884Z,50.48
2023-03-26T04:51:37.040Z,50.48
2023-03-26T04:52:36.922Z,50.48
2023-03-26T04:53:36.937Z,50.48
2023-03-26T04:54:36.957Z,50.48
2023-03-26T04:55:37.001Z,50.48
2023-03-26T04:56:36.993Z,50.48
2023-03-26T04:57:36.992Z,50.48
2023-03-26T04:58:37.009Z,50.48
2023-03-26T04:59:37.047Z,50.48
2023-03-26T05:00:37.056Z,50.38
2023-03-26T05:01:37.095Z,50.48
2023-03-26T05:02:37.078Z,50.48
2023-03-26T05:03:37.057Z,50.38
2023-03-26T05:04:37.124Z,50.38
2023-03-26T05:05:37.102Z,50.38
2023-03-26T05:06:37.101Z,50.38
2023-03-26T05:07:37.141Z,50.38
2023-03-26T05:08:37.149Z,50.48
2023-03-26T05:09:37.118Z,50.38
2023-03-26T05:10:37.154Z,50.38
2023-03-26T05:11:37.168Z,50.38
2023-03-26T05:12:37.186Z,50.29
2023-03-26T05:13:37.210Z,50.38
2023-03-26T05:14:37.229Z,50.29
2023-03-26T05:15:37.232Z,50.38
2023-03-26T05:16:37.314Z,50.29
2023-03-26T05:17:37.315Z,50.38
2023-03-26T05:18:37.308Z,50.38
2023-03-26T05:19:37.318Z,50.38
2023-03-26T05:20:37.338Z,50.38
2023-03-26T05:21:37.362Z,50.38
2023-03-26T05:22:38.218Z,50.38
2023-03-26T05:23:37.423Z,50.29
2023-03-26T05:24:37.392Z,50.29
2023-03-26T05:25:37.420Z,50.29
2023-03-26T05:26:37.446Z,50.29
2023-03-26T05:27:37.486Z,50.29
2023-03-26T05:28:37.522Z,50.29
2023-03-26T05:29:37.544Z,50.29
2023-03-26T05:30:37.537Z,50.29
2023-03-26T05:31:37.565Z,50.29
2023-03-26T05:32:37.648Z,50.18
2023-03-26T05:33:37.669Z,50.29
2023-03-26T05:34:37.559Z,50.18
2023-03-26T05:35:37.664Z,50.09
2023-03-26T05:36:37.611Z,50.18
2023-03-26T05:37:37.637Z,50.18
2023-03-26T05:38:37.663Z,50.18
2023-03-26T05:39:37.851Z,50.09
2023-03-26T05:40:37.687Z,50.18
2023-03-26T05:41:37.673Z,50.18
2023-03-26T05:42:37.684Z,50.18
2023-03-26T05:43:37.704Z,50.09
2023-03-26T05:44:37.723Z,50.18
2023-03-26T05:45:37.707Z,50.09
2023-03-26T05:46:37.725Z,50.09
2023-03-26T05:47:37.811Z,50.09
2023-03-26T05:48:37.711Z,50.06
2023-03-26T05:49:37.746Z,50.06
2023-03-26T05:50:37.760Z,50.06
2023-03-26T05:51:37.737Z,50.06
2023-03-26T05:52:37.762Z,50.06
2023-03-26T05:53:37.796Z,50.06
2023-03-26T05:54:37.826Z,49.96
2023-03-26T05:55:37.907Z,49.96
2023-03-26T05:56:38.074Z,49.96
2023-03-26T05:57:37.850Z,49.96
2023-03-26T05:58:37.890Z,49.96
2023-03-26T05:59:37.879Z,49.96
2023-03-26T06:00:37.864Z,49.96
2023-03-26T06:01:37.887Z,49.96
2023-03-26T06:02:38.012Z,49.96
2023-03-26T06:03:38.164Z,49.96
2023-03-26T06:04:38.002Z,49.96
2023-03-26T06:05:37.919Z,49.96
2023-03-26T06:06:37.916Z,49.96
2023-03-26T06:07:37.900Z,49.96
2023-03-26T06:08:37.948Z,49.86
2023-03-26T06:09:38.901Z,49.86
2023-03-26T06:10:37.968Z,49.76
2023-03-26T06:11:38.023Z,49.86
2023-03-26T06:12:38.004Z,49.76
2023-03-26T06:13:38.112Z,49.86
2023-03-26T06:14:38.020Z,49.76
2023-03-26T06:15:38.112Z,49.86
2023-03-26T06:16:38.025Z,49.76
2023-03-26T06:17:38.094Z,49.66
2023-03-26T06:18:38.095Z,49.76
2023-03-26T06:19:38.091Z,49.76
2023-03-26T06:20:38.077Z,49.66
2023-03-26T06:21:38.068Z,49.66
2023-03-26T06:22:38.074Z,49.66
2023-03-26T06:23:38.053Z,49.66
2023-03-26T06:24:38.089Z,49.66
2023-03-26T06:25:38.113Z,49.66
2023-03-26T06:26:38.134Z,49.66
2023-03-26T06:27:38.172Z,49.66
2023-03-26T06:28:38.228Z,49.66
2023-03-26T06:29:38.165Z,49.56
2023-03-26T06:30:38.201Z,49.56
2023-03-26T06:31:38.221Z,49.54
2023-03-26T06:32:38.249Z,49.43
2023-03-26T06:33:38.204Z,49.46
2023-03-26T06:34:38.198Z,49.54
2023-03-26T06:35:38.245Z,49.43
2023-03-26T06:36:38.235Z,49.43
2023-03-26T06:37:38.261Z,49.33
2023-03-26T06:38:38.291Z,49.33
2023-03-26T06:39:38.312Z,49.43
2023-03-26T06:40:38.538Z,49.33
2023-03-26T06:41:38.352Z,49.33
2023-03-26T06:43:07.667Z,49.33
2023-03-26T06:43:38.387Z,49.33
2023-03-26T06:44:38.364Z,49.33
2023-03-26T06:45:38.398Z,49.33
2023-03-26T06:46:38.482Z,49.23
2023-03-26T06:47:38.478Z,49.23
2023-03-26T06:48:38.437Z,49.23
2023-03-26T06:49:38.493Z,49.13
2023-03-26T06:50:38.472Z,49.13
2023-03-26T06:51:38.468Z,49.23
2023-03-26T06:52:38.453Z,49.13
2023-03-26T06:53:38.472Z,49.13
2023-03-26T06:54:38.497Z,49.13
2023-03-26T06:55:38.479Z,49.13
2023-03-26T06:56:38.522Z,49.13
2023-03-26T06:57:38.515Z,49.13
2023-03-26T06:58:38.514Z,49.13
2023-03-26T06:59:38.530Z,49.04
2023-03-26T07:00:38.561Z,49.11
2023-03-26T07:01:38.524Z,49.01
2023-03-26T07:02:38.542Z,48.91
2023-03-26T07:03:38.590Z,49.01
2023-03-26T07:04:38.542Z,49.01
2023-03-26T07:05:38.558Z,49.01
2023-03-26T07:06:38.585Z,48.91
2023-03-26T07:07:46.373Z,49.01
2023-03-26T07:08:38.587Z,48.91
2023-03-26T07:09:38.623Z,48.91
2023-03-26T07:10:38.612Z,48.91
2023-03-26T07:11:38.596Z,48.91
2023-03-26T07:12:38.631Z,48.91
2023-03-26T07:13:38.606Z,48.91
2023-03-26T07:14:38.635Z,48.81
2023-03-26T07:15:38.897Z,48.81
2023-03-26T07:16:38.750Z,48.81
2023-03-26T07:17:38.748Z,48.91
2023-03-26T07:18:38.707Z,48.91
2023-03-26T07:19:38.689Z,48.81
2023-03-26T07:20:38.721Z,48.81
2023-03-26T07:21:38.718Z,48.81
2023-03-26T07:22:38.742Z,48.81
2023-03-26T07:23:38.775Z,48.71
2023-03-26T07:24:38.803Z,48.71
2023-03-26T07:25:38.829Z,48.71
2023-03-26T07:26:38.815Z,48.71
2023-03-26T07:27:38.805Z,48.71
2023-03-26T07:28:38.831Z,48.71
2023-03-26T07:29:38.863Z,48.71
2023-03-26T07:30:38.897Z,48.71
2023-03-26T07:31:38.988Z,48.71
2023-03-26T07:32:38.952Z,48.71
2023-03-26T07:33:38.946Z,48.81
2023-03-26T07:34:38.938Z,48.81
2023-03-26T07:35:38.976Z,48.81
2023-03-26T07:36:38.929Z,48.81
2023-03-26T07:37:38.962Z,48.81
2023-03-26T07:38:38.949Z,48.71
2023-03-26T07:39:38.930Z,48.81
2023-03-26T07:40:38.968Z,48.81
2023-03-26T07:41:38.950Z,48.81
2023-03-26T07:42:38.984Z,48.71
2023-03-26T07:43:38.962Z,48.71
2023-03-26T07:44:38.983Z,48.71
2023-03-26T07:45:39.082Z,48.71
2023-03-26T07:46:39.021Z,48.71
2023-03-26T07:47:39.036Z,48.71
2023-03-26T07:48:39.002Z,48.71
2023-03-26T07:49:39.029Z,48.71
2023-03-26T07:50:39.062Z,48.61
2023-03-26T07:51:39.049Z,48.69
2023-03-26T07:52:39.034Z,48.61
2023-03-26T07:53:39.064Z,48.58
2023-03-26T07:54:39.090Z,48.61
2023-03-26T07:55:39.067Z,48.61
2023-03-26T07:56:39.135Z,48.71
2023-03-26T07:57:39.197Z,48.71
2023-03-26T07:58:39.094Z,48.71
2023-03-26T07:59:39.093Z,48.81
2023-03-26T08:00:39.084Z,48.81
2023-03-26T08:01:39.066Z,48.81
2023-03-26T08:02:39.097Z,48.81
2023-03-26T08:03:39.165Z,48.81
2023-03-26T08:04:39.183Z,48.81
2023-03-26T08:05:39.057Z,48.81
2023-03-26T08:06:39.084Z,48.81
2023-03-26T08:07:39.128Z,48.81
2023-03-26T08:08:39.119Z,48.81
2023-03-26T08:09:39.111Z,48.81
2023-03-26T08:10:39.171Z,48.71
2023-03-26T08:11:39.166Z,48.71
2023-03-26T08:12:39.180Z,48.71
2023-03-26T08:13:39.174Z,48.58
2023-03-26T08:14:39.198Z,48.58
2023-03-26T08:15:39.242Z,48.58
2023-03-26T08:16:39.205Z,48.71
2023-03-26T08:17:39.221Z,48.58
2023-03-26T08:18:39.178Z,48.71
2023-03-26T08:19:39.217Z,48.71
2023-03-26T08:20:39.191Z,48.71
2023-03-26T08:21:39.207Z,48.71
2023-03-26T08:22:39.240Z,48.71
2023-03-26T08:23:50.757Z,48.81
2023-03-26T08:24:39.312Z,48.71
2023-03-26T08:25:39.325Z,48.71
2023-03-26T08:26:39.293Z,48.81
2023-03-26T08:27:39.278Z,48.81
2023-03-26T08:28:39.274Z,48.81
2023-03-26T08:29:39.270Z,48.91
2023-03-26T08:30:39.268Z,48.91
2023-03-26T08:31:39.331Z,48.91
2023-03-26T08:32:39.323Z,48.91
2023-03-26T08:33:39.307Z,48.91
2023-03-26T08:34:39.335Z,48.91
2023-03-26T08:35:39.445Z,48.91
2023-03-26T08:36:39.317Z,48.91
2023-03-26T08:37:39.325Z,48.91
2023-03-26T08:38:39.327Z,48.91
2023-03-26T08:39:39.306Z,48.91
2023-03-26T08:40:39.342Z,48.81
2023-03-26T08:41:39.369Z,48.81
2023-03-26T08:42:39.377Z,48.81
2023-03-26T08:43:39.357Z,48.81
2023-03-26T08:44:39.387Z,48.81
2023-03-26T08:45:39.404Z,48.81
2023-03-26T08:46:39.438Z,48.81
2023-03-26T08:47:39.444Z,48.71
2023-03-26T08:48:39.401Z,48.71
2023-03-26T08:49:39.383Z,48.71
2023-03-26T08:50:39.411Z,48.71
2023-03-26T08:51:39.462Z,48.81
2023-03-26T08:52:39.465Z,48.81
2023-03-26T08:53:39.454Z,48.81
2023-03-26T08:54:39.474Z,48.81
2023-03-26T08:55:39.500Z,48.91
2023-03-26T08:56:39.522Z,48.91
2023-03-26T08:57:39.539Z,48.91
2023-03-26T08:58:39.781Z,48.91
2023-03-26T08:59:39.533Z,48.91
2023-03-26T09:00:39.585Z,49.01
2023-03-26T09:01:39.637Z,49.01
2023-03-26T09:02:39.642Z,49.01
2023-03-26T09:03:39.628Z,49.01
2023-03-26T09:04:39.631Z,48.91
2023-03-26T09:05:39.667Z,48.91
2023-03-26T09:06:39.685Z,48.91
2023-03-26T09:07:39.747Z,48.91
2023-03-26T09:08:54.184Z,48.91
2023-03-26T09:09:39.732Z,48.91
2023-03-26T09:10:39.743Z,48.91
2023-03-26T09:11:39.736Z,48.91
2023-03-26T09:12:39.766Z,48.81
2023-03-26T09:13:39.751Z,48.81
2023-03-26T09:14:39.744Z,48.81
2023-03-26T09:15:39.744Z,48.81
2023-03-26T09:16:39.767Z,48.81
2023-03-26T09:17:39.892Z,48.79
2023-03-26T09:18:39.760Z,48.81
2023-03-26T09:19:39.752Z,48.81
2023-03-26T09:20:39.737Z,48.81
2023-03-26T09:21:39.759Z,48.91
2023-03-26T09:22:39.789Z,48.91
2023-03-26T09:23:39.852Z,48.91
2023-03-26T09:24:39.830Z,48.91
2023-03-26T09:25:39.858Z,48.91
2023-03-26T09:26:39.838Z,48.91
2023-03-26T09:27:39.846Z,48.79
2023-03-26T09:28:39.826Z,48.69
2023-03-26T09:29:39.850Z,48.58
2023-03-26T09:30:39.876Z,48.49
2023-03-26T09:31:39.926Z,48.49
2023-03-26T09:32:39.930Z,48.58
2023-03-26T09:33:39.917Z,48.49
2023-03-26T09:34:39.939Z,48.49
2023-03-26T09:35:40.023Z,48.49
2023-03-26T09:36:39.984Z,48.49
2023-03-26T09:37:56.320Z,48.58
2023-03-26T09:38:39.986Z,48.58
2023-03-26T09:39:40.149Z,48.58
2023-03-26T09:40:40.037Z,48.58
2023-03-26T09:41:40.060Z,48.58
2023-03-26T09:42:40.010Z,48.69
2023-03-26T09:43:40.040Z,48.58
2023-03-26T09:44:40.060Z,48.58
2023-03-26T09:45:40.252Z,48.58
2023-03-26T09:46:40.057Z,48.49
2023-03-26T09:47:40.083Z,48.49
2023-03-26T09:48:40.069Z,48.49
2023-03-26T09:49:40.103Z,48.49
2023-03-26T09:50:40.090Z,48.49
2023-03-26T09:51:40.263Z,48.49
2023-03-26T09:52:40.114Z,48.49
2023-03-26T09:53:40.148Z,48.49
2023-03-26T09:54:40.161Z,48.58
2023-03-26T09:55:40.169Z,48.58
2023-03-26T09:56:40.170Z,48.58
2023-03-26T09:57:40.220Z,48.49
2023-03-26T09:58:40.207Z,48.49
2023-03-26T09:59:40.184Z,48.36
2023-03-26T10:00:40.207Z,48.26
2023-03-26T10:01:40.370Z,48.26
2023-03-26T10:02:45.379Z,48.26
2023-03-26T10:03:40.271Z,48.36
2023-03-26T10:04:40.425Z,48.38
2023-03-26T10:05:40.293Z,48.38
2023-03-26T10:06:40.264Z,48.49
2023-03-26T10:07:40.287Z,48.36
2023-03-26T10:08:40.335Z,48.16
2023-03-26T10:09:40.310Z,48.07
2023-03-26T10:10:40.308Z,47.86
2023-03-26T10:11:40.338Z,47.74
2023-03-26T10:12:40.318Z,47.74
2023-03-26T10:13:40.344Z,47.74
2023-03-26T10:14:40.334Z,47.74
2023-03-26T10:15:40.377Z,47.74
2023-03-26T10:16:40.415Z,47.84
2023-03-26T10:17:40.395Z,47.74
2023-03-26T10:18:40.386Z,47.74
2023-03-26T10:19:40.377Z,47.74
2023-03-26T10:20:40.402Z,47.74
2023-03-26T10:21:40.651Z,47.84
2023-03-26T10:22:40.406Z,47.74
2023-03-26T10:23:40.428Z,47.74
2023-03-26T10:24:40.455Z,47.74
2023-03-26T10:25:40.488Z,47.74
2023-03-26T10:26:40.481Z,47.74
2023-03-26T10:27:40.491Z,47.64
2023-03-26T10:28:40.511Z,47.64
2023-03-26T10:29:40.488Z,47.64
2023-03-26T10:30:40.554Z,47.64
2023-03-26T10:31:40.526Z,47.44
2023-03-26T10:32:40.585Z,47.44
2023-03-26T10:33:40.563Z,47.31
2023-03-26T10:34:40.548Z,47.22
2023-03-26T10:35:40.692Z,47.02
2023-03-26T10:36:40.584Z,46.80
2023-03-26T10:37:40.610Z,46.69
2023-03-26T10:38:40.609Z,46.69
2023-03-26T10:39:41.683Z,46.69
2023-03-26T10:40:40.598Z,46.69
2023-03-26T10:41:40.636Z,46.80
2023-03-26T10:42:40.632Z,46.92
2023-03-26T10:43:40.642Z,47.02
2023-03-26T10:44:40.615Z,47.11
2023-03-26T10:45:40.641Z,47.22
2023-03-26T10:46:40.704Z,47.31
2023-03-26T10:47:40.760Z,47.42
2023-03-26T10:48:40.699Z,47.42
2023-03-26T10:49:40.724Z,47.31
2023-03-26T10:50:40.717Z,47.31
2023-03-26T10:51:40.743Z,47.31
2023-03-26T10:52:40.729Z,47.31
2023-03-26T10:53:40.784Z,47.31
2023-03-26T10:54:40.790Z,47.31
2023-03-26T10:55:40.775Z,47.42
2023-03-26T10:56:40.795Z,47.44
2023-03-26T10:57:40.800Z,47.54
2023-03-26T10:58:49.752Z,47.64
2023-03-26T10:59:40.891Z,47.74
2023-03-26T11:00:40.822Z,47.84
2023-03-26T11:01:40.863Z,47.74
2023-03-26T11:02:40.905Z,47.54
2023-03-26T11:03:40.869Z,47.31
2023-03-26T11:04:40.865Z,47.02
2023-03-26T11:05:40.865Z,46.89
2023-03-26T11:06:40.867Z,46.92
2023-03-26T11:07:40.892Z,47.02
2023-03-26T11:08:40.924Z,47.11
2023-03-26T11:09:40.915Z,47.22
2023-03-26T11:10:40.904Z,47.22
2023-03-26T11:11:40.898Z,47.11
2023-03-26T11:12:40.879Z,46.99
2023-03-26T11:13:40.880Z,46.80
2023-03-26T11:14:40.901Z,46.59
2023-03-26T11:15:40.942Z,46.37
2023-03-26T11:16:40.935Z,46.37
2023-03-26T11:17:41.532Z,46.17
2023-03-26T11:18:40.949Z,46.17
2023-03-26T11:19:40.980Z,46.05
2023-03-26T11:20:40.960Z,45.95
2023-03-26T11:21:40.985Z,45.95
2023-03-26T11:22:41.006Z,45.85
2023-03-26T11:23:40.984Z,45.95
2023-03-26T11:24:40.984Z,45.85
2023-03-26T11:25:41.021Z,45.65
2023-03-26T11:26:41.014Z,45.75
2023-03-26T11:27:41.030Z,45.75
2023-03-26T11:28:41.027Z,45.85
2023-03-26T11:29:41.039Z,45.85
2023-03-26T11:30:41.018Z,45.85
2023-03-26T11:31:41.104Z,45.95
2023-03-26T11:32:41.054Z,45.85
2023-03-26T11:33:46.206Z,45.95
2023-03-26T11:34:41.036Z,46.05
2023-03-26T11:35:41.733Z,45.95
2023-03-26T11:36:41.050Z,45.95
2023-03-26T11:37:41.043Z,46.05
2023-03-26T11:38:41.079Z,46.27
2023-03-26T11:39:41.071Z,46.27
2023-03-26T11:40:41.099Z,46.15
2023-03-26T11:41:41.085Z,46.05
2023-03-26T11:42:41.118Z,46.05
2023-03-26T11:43:41.111Z,46.27
2023-03-26T11:44:41.142Z,46.27
2023-03-26T11:45:41.134Z,46.25
2023-03-26T11:46:41.143Z,46.05
2023-03-26T11:47:41.186Z,45.95
2023-03-26T11:48:41.169Z,45.93
2023-03-26T11:49:41.190Z,45.63
2023-03-26T11:50:41.200Z,45.31
2023-03-26T11:51:41.201Z,45.10
2023-03-26T11:52:41.210Z,45.10
2023-03-26T11:53:41.191Z,45.01
2023-03-26T11:54:41.218Z,45.10
2023-03-26T11:55:41.259Z,45.10
2023-03-26T11:56:41.351Z,45.21
2023-03-26T11:57:41.288Z,45.01
2023-03-26T11:58:41.239Z,44.81
2023-03-26T11:59:53.144Z,44.69
2023-03-26T12:00:41.281Z,44.69
2023-03-26T12:01:41.353Z,44.59
2023-03-26T12:02:41.477Z,44.69
2023-03-26T12:03:41.330Z,44.69
2023-03-26T12:04:41.380Z,44.79
2023-03-26T12:05:41.323Z,44.69
2023-03-26T12:06:41.304Z,44.59
2023-03-26T12:07:41.328Z,44.27
2023-03-26T12:08:41.400Z,44.27
2023-03-26T12:09:41.347Z,44.27
2023-03-26T12:10:41.380Z,44.17
2023-03-26T12:11:41.411Z,44.17
2023-03-26T12:12:41.395Z,44.17
2023-03-26T12:13:41.386Z,44.27
2023-03-26T12:14:41.426Z,44.49
2023-03-26T12:15:41.407Z,44.38
2023-03-26T12:16:41.499Z,44.49
2023-03-26T12:17:41.464Z,44.49
2023-03-26T12:18:41.465Z,44.59
2023-03-26T12:19:41.530Z,44.59
2023-03-26T12:20:41.465Z,44.69
2023-03-26T12:21:41.488Z,44.69
2023-03-26T12:22:43.575Z,44.69
2023-03-26T12:23:41.552Z,44.69
2023-03-26T12:24:41.533Z,44.69
2023-03-26T12:25:41.553Z,44.69
2023-03-26T12:26:41.744Z,44.69
2023-03-26T12:27:41.592Z,44.69
2023-03-26T12:28:42.970Z,44.91
2023-03-26T12:29:41.586Z,45.01
2023-03-26T12:30:41.611Z,45.01
2023-03-26T12:31:41.643Z,45.01
2023-03-26T12:32:46.191Z,45.10
2023-03-26T12:33:41.670Z,45.21
2023-03-26T12:34:41.670Z,45.21
2023-03-26T12:35:41.712Z,45.31
2023-03-26T12:36:41.656Z,45.33
2023-03-26T12:37:41.694Z,45.43
2023-03-26T12:38:41.703Z,45.21
2023-03-26T12:40:09.853Z,45.10
2023-03-26T12:40:41.686Z,45.01
2023-03-26T12:44:44.671Z,44.79
2023-03-26T12:44:51.665Z,44.46
2023-03-26T12:44:54.550Z,44.17
2023-03-26T12:44:56.211Z,44.27
2023-03-26T12:45:41.833Z,44.17
2023-03-26T12:47:54.887Z,44.17
2023-03-26T12:47:58.147Z,43.95
2023-03-26T12:48:41.881Z,43.95
2023-03-26T12:49:41.748Z,44.07
2023-03-26T12:50:41.744Z,44.49
2023-03-26T12:51:41.749Z,44.38
2023-03-26T12:52:41.732Z,44.38